createdAt,value
2024-05-09T00:00:42.705Z,43.91
2024-05-09T00:03:11.742Z,44.20
2024-05-09T00:05:44.126Z,43.45
2024-05-09T00:08:12.208Z,44.33
2024-05-09T00:10:40.651Z,44.22
2024-05-09T00:13:09.745Z,44.57
2024-05-09T00:15:37.433Z,43.62
2024-05-09T00:18:07.656Z,44.73
2024-05-09T00:20:39.216Z,44.50
2024-05-09T00:23:09.530Z,44.52
2024-05-09T00:25:37.918Z,44.71
2024-05-09T00:28:05.639Z,44.37
2024-05-09T00:30:35.697Z,45.46
2024-05-09T00:33:08.967Z,43.83
2024-05-09T00:35:37.478Z,45.32
2024-05-09T00:38:05.042Z,45.37
2024-05-09T00:40:41.966Z,43.96
2024-05-09T00:43:14.714Z,44.19
2024-05-09T00:45:42.908Z,45.76
2024-05-09T00:48:14.377Z,44.93
2024-05-09T00:50:45.108Z,45.96
2024-05-09T00:53:14.310Z,45.29
2024-05-09T00:55:42.094Z,45.57
2024-05-09T00:58:11.071Z,45.38
2024-05-09T01:00:40.339Z,45.16
2024-05-09T01:03:10.891Z,45.82
2024-05-09T01:05:40.237Z,45.93
2024-05-09T01:08:08.425Z,45.68
2024-05-09T01:10:36.605Z,44.89
2024-05-09T01:13:07.472Z,44.56
2024-05-09T01:15:35.820Z,45.38
2024-05-09T01:18:09.835Z,44.71
2024-05-09T01:20:42.067Z,45.58
2024-05-09T01:23:12.125Z,45.85
2024-05-09T01:25:39.911Z,45.96
2024-05-09T01:28:07.239Z,46.32
2024-05-09T01:30:36.618Z,46.23
2024-05-09T01:33:07.395Z,45.96
2024-05-09T01:35:36.376Z,46.53
2024-05-09T01:38:03.616Z,46.75
2024-05-09T01:40:37.261Z,46.67
2024-05-09T01:43:07.468Z,46.07
2024-05-09T01:45:34.504Z,46.00
2024-05-09T01:48:02.265Z,46.97
2024-05-09T01:50:37.888Z,46.88
2024-05-09T01:53:13.079Z,46.58
2024-05-09T01:55:40.959Z,46.68
2024-05-09T01:58:08.962Z,47.19
2024-05-09T02:00:40.505Z,46.75
2024-05-09T02:03:12.489Z,46.31
2024-05-09T02:05:42.839Z,47.07
2024-05-09T02:08:17.169Z,46.16
2024-05-09T02:10:44.986Z,47.59
2024-05-09T02:13:12.766Z,47.62
2024-05-09T02:15:39.854Z,48.08
2024-05-09T02:18:08.572Z,47.93
2024-05-09T02:20:38.234Z,48.11
2024-05-09T02:23:06.770Z,48.27
2024-05-09T02:25:34.766Z,49.05
2024-05-09T02:28:02.132Z,47.98
2024-05-09T02:30:38.343Z,48.21
2024-05-09T02:33:13.091Z,48.88
2024-05-09T02:35:41.655Z,48.61
2024-05-09T02:38:12.224Z,47.84
2024-05-09T02:40:40.277Z,48.34
2024-05-09T02:43:09.674Z,48.84
2024-05-09T02:45:37.972Z,49.85
2024-05-09T02:48:05.718Z,49.79
2024-05-09T02:50:38.082Z,49.83
2024-05-09T02:53:07.627Z,49.13
2024-05-09T02:55:34.767Z,49.76
2024-05-09T02:58:02.092Z,50.18
2024-05-09T03:00:37.182Z,49.22
2024-05-09T03:03:08.999Z,50.08
2024-05-09T03:05:37.469Z,49.69
2024-05-09T03:08:04.882Z,49.84
2024-05-09T03:10:36.270Z,49.39
2024-05-09T03:13:09.253Z,48.39
2024-05-09T03:15:36.686Z,48.88
2024-05-09T03:18:05.645Z,49.49
2024-05-09T03:20:35.411Z,49.78
2024-05-09T03:23:05.360Z,50.00
2024-05-09T03:25:32.823Z,49.66
2024-05-09T03:27:59.905Z,49.46
2024-05-09T03:30:38.886Z,49.50
2024-05-09T03:33:20.189Z,47.59
2024-05-09T03:35:48.719Z,49.59
2024-05-09T03:38:16.513Z,49.13
2024-05-09T03:40:48.872Z,48.18
2024-05-09T03:43:17.422Z,49.57
2024-05-09T03:45:45.093Z,49.73
2024-05-09T03:48:12.908Z,49.94
2024-05-09T03:50:40.113Z,50.11
2024-05-09T03:53:11.425Z,48.89
2024-05-09T03:55:38.459Z,49.09
2024-05-09T03:58:07.991Z,48.95
2024-05-09T04:00:38.911Z,49.67
2024-05-09T04:03:10.158Z,49.92
2024-05-09T04:05:43.113Z,49.84
2024-05-09T04:08:12.837Z,49.64
2024-05-09T04:10:40.518Z,50.16
2024-05-09T04:13:07.459Z,48.85
2024-05-09T04:15:35.569Z,49.47
2024-05-09T04:18:02.955Z,49.24
2024-05-09T04:20:37.679Z,49.25
2024-05-09T04:23:09.048Z,49.22
2024-05-09T04:25:37.393Z,49.10
2024-05-09T04:28:04.936Z,49.22
2024-05-09T04:30:37.999Z,48.78
2024-05-09T04:33:10.115Z,48.31
2024-05-09T04:35:39.219Z,48.37
2024-05-09T04:38:06.547Z,48.74
2024-05-09T04:40:36.361Z,48.12
2024-05-09T04:43:05.611Z,47.77
2024-05-09T04:45:33.143Z,47.53
2024-05-09T04:48:00.631Z,47.17
2024-05-09T04:52:57.838Z,46.63
2024-05-09T04:55:24.826Z,46.07
2024-05-09T04:57:51.700Z,45.80
2024-05-09T05:00:28.120Z,46.00
2024-05-09T05:02:59.760Z,45.77
2024-05-09T05:05:26.904Z,45.85
2024-05-09T05:07:53.915Z,44.69
2024-05-09T05:10:25.527Z,44.27
2024-05-09T05:13:15.098Z,44.93
2024-05-09T05:15:43.814Z,44.71
2024-05-09T05:18:10.866Z,43.69
2024-05-09T05:20:37.961Z,44.01
2024-05-09T05:23:12.459Z,43.27
2024-05-09T05:25:40.129Z,41.42
2024-05-09T05:28:07.081Z,40.06
2024-05-09T05:30:38.537Z,40.06
2024-05-09T05:33:06.903Z,37.23
2024-05-09T05:35:34.860Z,36.13
2024-05-09T05:38:02.810Z,33.42
2024-05-09T05:40:36.470Z,33.25
2024-05-09T05:43:06.367Z,31.38
2024-05-09T05:45:33.276Z,30.41
2024-05-09T05:48:02.883Z,27.83
2024-05-09T05:50:35.802Z,27.35
2024-05-09T05:53:08.610Z,28.10
2024-05-09T05:55:36.936Z,25.20
2024-05-09T05:58:04.027Z,24.34
2024-05-09T06:00:38.198Z,23.65
2024-05-09T06:03:08.464Z,22.92
2024-05-09T06:05:37.406Z,21.63
2024-05-09T06:08:04.914Z,21.71
2024-05-09T06:10:38.094Z,20.14
2024-05-09T06:13:07.865Z,19.01
2024-05-09T06:15:34.944Z,19.63
2024-05-09T06:18:02.201Z,19.14
2024-05-09T06:20:35.788Z,18.42
2024-05-09T06:23:06.967Z,18.33
2024-05-09T06:25:37.117Z,17.28
2024-05-09T06:28:04.458Z,16.99
2024-05-09T06:30:39.357Z,15.47
2024-05-09T06:33:10.861Z,15.08
2024-05-09T06:35:39.809Z,15.48
2024-05-09T06:38:09.464Z,13.94
2024-05-09T06:40:41.324Z,14.05
2024-05-09T06:43:13.478Z,15.60
2024-05-09T06:45:40.729Z,13.90
2024-05-09T06:48:09.274Z,12.91
2024-05-09T06:50:38.500Z,13.11
2024-05-09T06:53:09.825Z,12.86
2024-05-09T06:55:37.825Z,12.38
2024-05-09T06:58:11.756Z,13.95
2024-05-09T07:00:41.191Z,11.17
2024-05-09T07:03:16.042Z,13.05
2024-05-09T07:05:46.870Z,12.57
2024-05-09T07:08:14.918Z,10.94
2024-05-09T07:10:42.329Z,11.22
2024-05-09T07:13:13.586Z,11.87
2024-05-09T07:15:42.011Z,10.41
2024-05-09T07:18:10.703Z,10.91
2024-05-09T07:20:39.001Z,10.31
2024-05-09T07:23:09.403Z,10.39
2024-05-09T07:25:36.897Z,9.31
2024-05-09T07:28:04.133Z,9.71
2024-05-09T07:30:34.256Z,8.87
2024-05-09T07:33:03.128Z,9.48
2024-05-09T07:35:31.254Z,9.49
2024-05-09T07:37:58.778Z,9.17
2024-05-09T07:40:33.122Z,9.32
2024-05-09T07:43:04.571Z,9.54
2024-05-09T07:45:48.053Z,9.70
2024-05-09T07:52:37.306Z,8.39
2024-05-09T07:53:49.391Z,9.34
2024-05-09T07:56:21.868Z,8.96
2024-05-09T07:58:51.746Z,8.76
2024-05-09T08:01:19.662Z,8.27
2024-05-09T08:03:49.068Z,7.93
2024-05-09T08:06:16.291Z,7.96
2024-05-09T08:08:43.200Z,7.71
2024-05-09T08:11:10.163Z,7.71
2024-05-09T08:13:37.321Z,7.65
2024-05-09T08:16:04.617Z,7.92
2024-05-09T08:18:31.889Z,7.54
2024-05-09T08:20:59.094Z,8.10
2024-05-09T08:23:26.033Z,8.81
2024-05-09T08:25:55.777Z,7.95
2024-05-09T08:28:22.837Z,7.52
2024-05-09T08:30:50.176Z,7.79
2024-05-09T08:33:17.370Z,8.04
2024-05-09T08:35:44.416Z,7.93
2024-05-09T08:38:11.522Z,7.58
2024-05-09T08:40:38.711Z,7.78
2024-05-09T08:43:11.686Z,7.88
2024-05-09T08:45:43.610Z,7.60
2024-05-09T08:48:13.539Z,7.58
2024-05-09T08:50:41.424Z,6.78
2024-05-09T08:53:09.145Z,7.68
2024-05-09T08:55:40.494Z,7.16
2024-05-09T08:58:15.431Z,7.52
2024-05-09T09:00:44.345Z,6.61
2024-05-09T09:03:19.709Z,7.19
2024-05-09T09:06:03.671Z,7.26
2024-05-09T09:08:30.786Z,6.95
2024-05-09T09:11:01.061Z,7.15
2024-05-09T09:13:28.051Z,6.61
2024-05-09T09:15:58.887Z,6.98
2024-05-09T09:18:27.114Z,6.27
2024-05-09T09:20:54.356Z,6.13
2024-05-09T09:23:21.654Z,6.64
2024-05-09T09:25:48.590Z,6.01
2024-05-09T09:28:15.974Z,6.16
2024-05-09T09:30:43.578Z,6.16
2024-05-09T09:33:11.268Z,6.07
2024-05-09T09:35:40.815Z,6.02
2024-05-09T09:38:10.608Z,6.34
2024-05-09T09:40:46.550Z,6.21
2024-05-09T09:43:20.747Z,6.91
2024-05-09T09:45:53.329Z,6.96
2024-05-09T09:48:22.863Z,7.31
2024-05-09T09:50:51.992Z,6.90
2024-05-09T09:53:19.896Z,7.50
2024-05-09T09:55:47.330Z,6.65
2024-05-09T09:58:16.527Z,6.81
2024-05-09T10:00:44.288Z,6.07
2024-05-09T10:03:11.732Z,6.65
2024-05-09T10:05:42.049Z,7.33
2024-05-09T10:08:12.396Z,7.10
2024-05-09T10:10:40.119Z,6.52
2024-05-09T10:13:08.682Z,6.97
2024-05-09T10:15:46.602Z,6.99
2024-05-09T10:18:14.634Z,6.66
2024-05-09T10:20:46.151Z,6.64
2024-05-09T10:23:30.048Z,7.42
2024-05-09T10:26:06.494Z,7.12
2024-05-09T10:28:37.675Z,7.10
2024-05-09T10:31:13.169Z,6.89
2024-05-09T10:33:52.043Z,7.10
2024-05-09T10:36:21.056Z,6.49
2024-05-09T10:38:52.809Z,6.78
2024-05-09T10:41:21.467Z,6.56
2024-05-09T10:43:48.951Z,6.95
2024-05-09T10:46:16.691Z,7.86
2024-05-09T10:48:44.695Z,6.71
2024-05-09T10:51:12.145Z,6.90
2024-05-09T10:53:47.153Z,7.38
2024-05-09T10:56:14.740Z,7.45
2024-05-09T10:58:42.170Z,7.26
2024-05-09T11:01:10.615Z,7.72
2024-05-09T11:03:38.825Z,8.09
2024-05-09T11:06:06.802Z,6.88
2024-05-09T11:08:35.263Z,7.63
2024-05-09T11:11:07.334Z,7.09
2024-05-09T11:13:36.704Z,8.33
2024-05-09T11:16:05.415Z,8.18
2024-05-09T11:18:36.593Z,8.53
2024-05-09T11:21:14.470Z,8.53
2024-05-09T11:23:41.840Z,8.41
2024-05-09T11:26:10.517Z,8.78
2024-05-09T11:28:37.487Z,8.48
2024-05-09T11:31:09.860Z,8.70
2024-05-09T11:33:39.467Z,8.47
2024-05-09T11:36:08.046Z,8.82
2024-05-09T11:38:35.462Z,8.35
2024-05-09T11:41:03.530Z,8.35
2024-05-09T11:43:30.618Z,8.83
2024-05-09T11:45:58.349Z,9.69
2024-05-09T11:48:26.166Z,9.42
2024-05-09T11:50:54.947Z,9.64
2024-05-09T11:53:22.049Z,8.42
2024-05-09T11:55:49.042Z,9.72
2024-05-09T11:58:18.203Z,9.85
2024-05-09T12:00:46.226Z,10.41
2024-05-09T12:03:13.697Z,9.52
2024-05-09T12:05:41.125Z,9.57
2024-05-09T12:08:08.414Z,9.55
2024-05-09T12:10:36.707Z,10.12
2024-05-09T12:13:06.191Z,11.27
2024-05-09T12:15:37.819Z,11.17
2024-05-09T12:18:06.729Z,11.28
2024-05-09T12:20:38.143Z,12.45
2024-05-09T12:23:09.487Z,13.43
2024-05-09T12:25:38.740Z,12.47
2024-05-09T12:28:06.492Z,13.68
2024-05-09T12:30:38.217Z,14.05
2024-05-09T12:33:12.732Z,13.63
2024-05-09T12:35:41.771Z,14.32
2024-05-09T12:38:10.023Z,13.81
2024-05-09T12:40:38.766Z,14.38
2024-05-09T12:43:08.065Z,14.99
2024-05-09T12:45:36.348Z,14.86
2024-05-09T12:48:04.928Z,14.76
2024-05-09T12:50:34.101Z,14.58
2024-05-09T12:53:02.749Z,15.65
2024-05-09T12:55:36.602Z,13.62
2024-05-09T12:58:08.986Z,15.77
2024-05-09T13:00:36.375Z,16.29
2024-05-09T13:03:03.752Z,15.98
2024-05-09T13:05:30.995Z,16.97
2024-05-09T13:07:58.118Z,16.75
2024-05-09T13:10:31.807Z,17.17
2024-05-09T13:13:01.645Z,17.86
2024-05-09T13:15:30.741Z,17.46
2024-05-09T13:18:00.574Z,17.56
2024-05-09T13:20:33.606Z,17.74
2024-05-09T13:23:04.654Z,18.30
2024-05-09T13:25:32.240Z,18.22
2024-05-09T13:27:59.266Z,18.08
2024-05-09T13:30:35.105Z,18.77
2024-05-09T13:33:07.368Z,19.75
2024-05-09T13:35:35.307Z,19.89
2024-05-09T13:38:03.195Z,18.88
2024-05-09T13:40:34.340Z,20.35
2024-05-09T13:43:04.908Z,20.53
2024-05-09T13:45:32.765Z,21.47
2024-05-09T13:48:00.208Z,21.54
2024-05-09T13:50:33.499Z,20.63
2024-05-09T13:53:03.445Z,20.17
2024-05-09T13:55:30.428Z,19.89
2024-05-09T13:57:57.535Z,21.44
2024-05-09T14:00:38.443Z,20.66
2024-05-09T14:03:11.476Z,21.88
2024-05-09T14:05:38.785Z,22.20
2024-05-09T14:08:06.235Z,21.56
2024-05-09T14:10:33.322Z,20.42
2024-05-09T14:13:01.365Z,21.84
2024-05-09T14:15:28.692Z,21.51
2024-05-09T14:17:55.885Z,21.86
2024-05-09T14:20:30.762Z,22.26
2024-05-09T14:23:02.228Z,20.54
2024-05-09T14:25:30.620Z,21.82
2024-05-09T14:27:58.301Z,21.71
2024-05-09T14:30:34.176Z,21.96
2024-05-09T14:33:05.113Z,22.26
2024-05-09T14:35:32.486Z,23.00
2024-05-09T14:37:59.533Z,23.48
2024-05-09T14:40:36.872Z,22.91
2024-05-09T14:43:10.196Z,23.21
2024-05-09T14:45:37.452Z,22.29
2024-05-09T14:48:05.474Z,22.89
2024-05-09T14:50:37.158Z,22.45
2024-05-09T14:53:07.603Z,22.80
2024-05-09T14:55:36.677Z,23.34
2024-05-09T14:58:07.001Z,23.27
2024-05-09T15:00:38.475Z,23.95
2024-05-09T15:03:07.237Z,23.54
2024-05-09T15:05:34.353Z,23.18
2024-05-09T15:08:01.396Z,23.55
2024-05-09T15:10:34.532Z,24.47
2024-05-09T15:13:03.873Z,24.42
2024-05-09T15:15:31.069Z,24.80
2024-05-09T15:17:58.462Z,24.37
2024-05-09T15:20:33.063Z,24.62
2024-05-09T15:23:03.556Z,24.05
2024-05-09T15:25:30.993Z,23.74
2024-05-09T15:27:58.163Z,23.37
2024-05-09T15:32:54.998Z,23.87
2024-05-09T15:35:22.086Z,24.35
2024-05-09T15:37:49.315Z,24.90
2024-05-09T15:40:26.090Z,24.68
2024-05-09T15:43:02.314Z,24.89
2024-05-09T15:45:29.704Z,24.65
2024-05-09T15:47:57.904Z,24.92
2024-05-09T15:50:35.307Z,25.11
2024-05-09T15:53:06.834Z,24.88
2024-05-09T15:55:34.889Z,25.11
2024-05-09T15:58:03.064Z,25.82
2024-05-09T16:00:37.826Z,25.49
2024-05-09T16:03:09.740Z,26.07
2024-05-09T16:05:37.613Z,25.78
2024-05-09T16:08:05.937Z,25.13
2024-05-09T16:10:34.563Z,26.23
2024-05-09T16:13:02.964Z,25.93
2024-05-09T16:15:30.690Z,26.03
2024-05-09T16:17:57.946Z,26.19
2024-05-09T16:20:34.635Z,26.65
2024-05-09T16:23:07.218Z,26.29
2024-05-09T16:25:34.234Z,26.12
2024-05-09T16:28:01.778Z,26.55
2024-05-09T16:30:34.564Z,26.09
2024-05-09T16:33:04.873Z,26.53
2024-05-09T16:35:32.835Z,26.30
2024-05-09T16:38:02.337Z,26.44
2024-05-09T16:40:36.870Z,23.18
2024-05-09T16:43:07.597Z,26.78
2024-05-09T16:45:35.093Z,26.23
2024-05-09T16:48:02.647Z,26.55
2024-05-09T16:50:34.217Z,26.51
2024-05-09T16:53:03.508Z,27.56
2024-05-09T16:55:31.115Z,26.85
2024-05-09T16:57:58.569Z,26.67
2024-05-09T17:00:35.784Z,26.72
2024-05-09T17:03:09.647Z,27.08
2024-05-09T17:05:37.352Z,27.21
2024-05-09T17:08:05.247Z,27.41
2024-05-09T17:10:34.393Z,27.03
2024-05-09T17:13:03.871Z,27.63
2024-05-09T17:15:32.651Z,27.62
2024-05-09T17:17:59.977Z,27.79
2024-05-09T17:20:33.027Z,28.27
2024-05-09T17:23:03.316Z,27.79
2024-05-09T17:25:30.288Z,28.43
2024-05-09T17:27:59.693Z,28.86
2024-05-09T17:30:32.492Z,28.87
2024-05-09T17:33:08.435Z,28.22
2024-05-09T17:35:36.709Z,29.11
2024-05-09T17:38:05.409Z,30.20
2024-05-09T17:40:35.872Z,29.73
2024-05-09T17:43:05.720Z,29.73
2024-05-09T17:45:33.594Z,29.42
2024-05-09T17:48:01.485Z,30.46
2024-05-09T17:50:35.197Z,30.48
2024-05-09T17:53:07.342Z,31.23
2024-05-09T17:55:34.983Z,31.44
2024-05-09T17:58:02.478Z,32.15
2024-05-09T18:00:37.463Z,32.69
2024-05-09T18:03:08.855Z,32.83
2024-05-09T18:05:37.085Z,34.11
2024-05-09T18:08:05.794Z,34.55
2024-05-09T18:10:37.169Z,34.00
2024-05-09T18:13:07.398Z,34.83
2024-05-09T18:15:35.014Z,34.56
2024-05-09T18:18:02.600Z,35.44
2024-05-09T18:20:38.158Z,34.43
2024-05-09T18:23:11.069Z,35.42
2024-05-09T18:25:38.118Z,35.32
2024-05-09T18:28:06.240Z,35.26
2024-05-09T18:30:36.318Z,36.56
2024-05-09T18:33:06.547Z,34.90
2024-05-09T18:35:34.882Z,36.22
2024-05-09T18:38:02.102Z,36.99
2024-05-09T18:40:34.347Z,37.19
2024-05-09T18:43:06.473Z,35.99
2024-05-09T18:45:35.198Z,37.89
2024-05-09T18:48:05.642Z,36.09
2024-05-09T18:50:37.320Z,36.43
2024-05-09T18:53:06.787Z,36.79
2024-05-09T18:55:33.843Z,37.72
2024-05-09T18:58:01.280Z,39.21
2024-05-09T19:00:34.691Z,37.85
2024-05-09T19:03:09.692Z,39.78
2024-05-09T19:05:39.049Z,39.25
2024-05-09T19:08:07.517Z,39.76
2024-05-09T19:10:36.004Z,39.69
2024-05-09T19:13:07.170Z,40.64
2024-05-09T19:15:38.767Z,40.85
2024-05-09T19:18:06.527Z,41.35
2024-05-09T19:20:35.501Z,41.37
2024-05-09T19:23:04.347Z,42.38
2024-05-09T19:25:32.167Z,42.41
2024-05-09T19:27:59.854Z,42.14
2024-05-09T19:30:36.421Z,41.72
2024-05-09T19:33:07.850Z,42.77
2024-05-09T19:35:34.929Z,43.69
2024-05-09T19:38:02.394Z,43.01
2024-05-09T19:40:32.261Z,42.43
2024-05-09T19:43:02.579Z,43.58
2024-05-09T19:45:30.451Z,43.29
2024-05-09T19:47:57.720Z,43.39
2024-05-09T19:50:32.574Z,44.00
2024-05-09T19:53:08.072Z,45.03
2024-05-09T19:55:35.275Z,43.96
2024-05-09T19:58:05.220Z,45.26
2024-05-09T20:00:39.615Z,43.25
2024-05-09T20:03:09.501Z,46.34
2024-05-09T20:05:37.500Z,45.78
2024-05-09T20:08:05.605Z,45.53
2024-05-09T20:10:35.078Z,45.72
2024-05-09T20:13:07.216Z,46.14
2024-05-09T20:15:36.751Z,46.23
2024-05-09T20:18:04.769Z,46.69
2024-05-09T20:20:38.222Z,46.20
2024-05-09T20:23:09.716Z,46.58
2024-05-09T20:25:36.978Z,47.38
2024-05-09T20:28:04.761Z,47.16
2024-05-09T20:30:34.380Z,46.33
2024-05-09T20:33:03.877Z,46.91
2024-05-09T20:35:32.555Z,38.85
2024-05-09T20:38:01.534Z,47.20
2024-05-09T20:40:33.576Z,47.32
2024-05-09T20:43:04.572Z,47.22
2024-05-09T20:45:31.892Z,46.91
2024-05-09T20:47:59.028Z,47.84
2024-05-09T20:50:36.147Z,48.08
2024-05-09T20:53:09.352Z,46.95
2024-05-09T20:55:36.852Z,48.46
2024-05-09T20:58:04.065Z,48.25
2024-05-09T21:00:39.286Z,47.54
2024-05-09T21:03:10.026Z,48.18
2024-05-09T21:05:37.337Z,47.25
2024-05-09T21:08:04.704Z,47.60
2024-05-09T21:10:33.573Z,48.07
2024-05-09T21:13:02.986Z,49.41
2024-05-09T21:15:30.821Z,49.13
2024-05-09T21:17:57.980Z,48.46
2024-05-09T21:20:31.013Z,48.27
2024-05-09T21:22:59.600Z,48.20
2024-05-09T21:25:26.620Z,48.82
2024-05-09T21:27:53.710Z,48.13
2024-05-09T21:32:51.482Z,49.31
2024-05-09T21:35:19.018Z,49.06
2024-05-09T21:37:45.995Z,49.84
2024-05-09T21:40:17.034Z,49.56
2024-05-09T21:42:52.345Z,49.24
2024-05-09T21:45:19.289Z,48.89
2024-05-09T21:47:46.337Z,49.10
2024-05-09T21:50:22.271Z,49.07
2024-05-09T21:52:54.168Z,49.74
2024-05-09T21:55:21.152Z,49.88
2024-05-09T21:57:48.174Z,49.23
2024-05-09T22:00:28.083Z,50.35
2024-05-09T22:03:02.295Z,51.06
2024-05-09T22:05:29.483Z,51.17
2024-05-09T22:07:57.247Z,50.52
2024-05-09T22:10:30.677Z,51.74
2024-05-09T22:13:01.673Z,50.94
2024-05-09T22:15:28.934Z,51.37
2024-05-09T22:17:57.512Z,51.36
2024-05-09T22:20:34.088Z,51.16
2024-05-09T22:23:05.000Z,51.48
2024-05-09T22:25:32.623Z,51.48
2024-05-09T22:28:00.928Z,52.18
2024-05-09T22:30:35.602Z,51.54
2024-05-09T22:33:07.205Z,52.05
2024-05-09T22:35:34.465Z,52.53
2024-05-09T22:38:03.041Z,51.90
2024-05-09T22:40:38.954Z,52.74
2024-05-09T22:43:14.021Z,52.92
2024-05-09T22:45:41.378Z,52.87
2024-05-09T22:48:09.380Z,52.50
2024-05-09T22:50:36.516Z,51.79
2024-05-09T22:53:03.644Z,52.54
2024-05-09T22:55:30.684Z,53.09
2024-05-09T22:57:57.660Z,53.04
2024-05-09T23:02:54.544Z,53.00
2024-05-09T23:05:21.680Z,53.12
2024-05-09T23:07:48.666Z,53.87
2024-05-09T23:10:21.420Z,53.19
2024-05-09T23:12:55.252Z,52.86
2024-05-09T23:15:22.280Z,52.74
2024-05-09T23:17:49.297Z,52.79
2024-05-09T23:20:22.082Z,53.41
2024-05-09T23:22:56.939Z,53.44
2024-05-09T23:25:24.029Z,53.89
2024-05-09T23:27:51.013Z,52.45
2024-05-09T23:30:28.452Z,53.64
2024-05-09T23:33:01.726Z,53.42
2024-05-09T23:35:28.764Z,53.47
2024-05-09T23:37:55.948Z,53.82
2024-05-09T23:40:23.851Z,53.26
2024-05-09T23:42:53.707Z,53.22
2024-05-09T23:45:20.736Z,53.68
2024-05-09T23:47:47.727Z,53.88
2024-05-09T23:50:20.517Z,53.83
2024-05-09T23:52:50.979Z,53.75
2024-05-09T23:55:18.253Z,53.74
2024-05-09T23:57:45.546Z,54.33
